Adriatic Highway — 7JDP — position and weather

sailwx.info

Track history (hours):
 
Tides and Currents Weather Stations Pressure Air Temp Water Temp Dewpoint Dewpoint Depression Visibility Wind Speed Wind Dir Waves Ship Positions

Adriatic Highway

Last reported at 2018-Feb-14 03:42 UTC. Time now 2018-Feb-20 12:15 UTC.
Position N 41°26' W 071°24'.

Length 199 m; draft 8.8 m.

Type: Cargo ship. MMSI: 432665000.

Date/timePositionNaut miles runAvg speedWind from/ knotsBaromVisibWave heightAir tempDewpointWater temp
2018-Feb-14 03:42N 41°26' W 071°24'1 7.1
2018-Feb-14 03:30N 41°26' W 071°23'612.0
2018-Feb-14 03:00N 41°32' W 071°21'4 8.4
2018-Feb-14 02:30N 41°36' W 071°24'1 1.5
2018-Feb-14 01:53N 41°37' W 071°24'0 0.0
2018-Feb-14 01:29N 41°37' W 071°24'0 0.0
2018-Feb-14 00:59N 41°37' W 071°24'0 0.0
2018-Feb-14 00:22N 41°37' W 071°24'0 0.0
2018-Feb-13 23:53N 41°37' W 071°24'0 0.0
2018-Feb-13 23:29N 41°37' W 071°24'0 0.0
2018-Feb-13 22:59N 41°37' W 071°24'0 0.0
2018-Feb-13 22:29N 41°37' W 071°24'0 0.0
2018-Feb-13 21:59N 41°37' W 071°24'0 0.0
2018-Feb-13 21:29N 41°37' W 071°24'0 0.0
2018-Feb-13 20:59N 41°37' W 071°24'0 0.0
2018-Feb-13 20:29N 41°37' W 071°24'0 0.0
2018-Feb-13 19:47N 41°37' W 071°24'0 0.0
2018-Feb-13 19:29N 41°37' W 071°24'0 0.0
2018-Feb-13 18:59N 41°37' W 071°24'0 0.0
2018-Feb-13 18:17N 41°37' W 071°24'0 0.0
2018-Feb-13 17:59N 41°37' W 071°24'0 0.0
2018-Feb-13 17:29N 41°37' W 071°24'0 0.0
2018-Feb-13 16:59N 41°37' W 071°24'0 0.0
2018-Feb-13 16:23N 41°37' W 071°24'0 0.0
2018-Feb-13 15:59N 41°37' W 071°24'0 0.0
2018-Feb-13 15:28N 41°37' W 071°24'0 0.0
2018-Feb-13 14:58N 41°37' W 071°24'1 1.3
2018-Feb-13 14:30N 41°36' W 071°24'3 5.9
2018-Feb-13 14:00N 41°34' W 071°21'611.6
2018-Feb-13 13:30N 41°28' W 071°21'510.2
2018-Feb-13 13:00N 41°23' W 071°21'  
2018-Feb-10 12:20N 26°22' W 079°27'618.0
2018-Feb-10 12:00N 26°16' W 079°28'918.0
2018-Feb-10 11:30N 26°07' W 079°29'918.1
2018-Feb-10 11:00N 25°58' W 079°31'918.2
2018-Feb-10 10:30N 25°49' W 079°33'918.3
2018-Feb-10 10:00N 25°40' W 079°35'918.4
2018-Feb-10 09:30N 25°31' W 079°36'  
2018-Feb-07 09:26N 19°13' W 096°08'0 0.0
2018-Feb-07 08:38N 19°13' W 096°08'0 0.0
2018-Feb-07 08:20N 19°13' W 096°08'0 0.0
2018-Feb-07 07:59N 19°13' W 096°08'0 0.0
2018-Feb-07 07:23N 19°13' W 096°08'0 0.0
2018-Feb-07 06:53N 19°13' W 096°08'0 0.0
2018-Feb-07 06:26N 19°13' W 096°08'0 0.0
2018-Feb-07 05:59N 19°13' W 096°08'0 0.0
2018-Feb-07 05:29N 19°13' W 096°08'0 0.0
2018-Feb-07 04:59N 19°13' W 096°08'0 0.0
2018-Feb-07 04:29N 19°13' W 096°08'0 0.0
2018-Feb-07 03:56N 19°13' W 096°08'0 0.0
2018-Feb-07 03:29N 19°13' W 096°08'0 0.0
2018-Feb-07 02:59N 19°13' W 096°08'0 0.0
2018-Feb-07 02:29N 19°13' W 096°08'0 0.0
2018-Feb-07 01:59N 19°13' W 096°08'0 0.0
2018-Feb-07 01:29N 19°13' W 096°08'0 0.0
2018-Feb-07 00:59N 19°13' W 096°08'0 0.0
2018-Feb-07 00:23N 19°13' W 096°08'0 0.0
2018-Feb-06 23:59N 19°13' W 096°08'0 0.0
2018-Feb-06 23:29N 19°13' W 096°08'0 0.0
2018-Feb-06 22:59N 19°13' W 096°08'0 0.0
2018-Feb-06 22:26N 19°13' W 096°08'0 0.0
2018-Feb-06 21:59N 19°13' W 096°08'0 0.0
2018-Feb-06 21:29N 19°13' W 096°08'0 0.0
2018-Feb-06 20:59N 19°13' W 096°08'0 0.0
2018-Feb-06 20:29N 19°13' W 096°08'0 0.0
2018-Feb-06 19:59N 19°13' W 096°08'0 0.0
2018-Feb-06 19:29N 19°13' W 096°08'0 0.0
2018-Feb-06 18:59N 19°13' W 096°08'0 0.0
2018-Feb-06 18:29N 19°13' W 096°08'0 0.0
2018-Feb-06 17:59N 19°13' W 096°08'0 0.0
2018-Feb-06 17:29N 19°13' W 096°08'0 0.0
2018-Feb-06 16:59N 19°13' W 096°08'0 0.0
2018-Feb-06 16:29N 19°13' W 096°08'0 0.0
2018-Feb-06 15:59N 19°13' W 096°08'0 0.0
2018-Feb-06 15:29N 19°13' W 096°08'0 0.0
2018-Feb-06 14:59N 19°13' W 096°08'0 0.0
2018-Feb-06 14:29N 19°13' W 096°08'0 0.0
2018-Feb-06 13:59N 19°13' W 096°08'0 0.0
2018-Feb-06 13:29N 19°13' W 096°08'0 0.0
2018-Feb-06 12:59N 19°13' W 096°08'0 0.0
2018-Feb-06 12:29N 19°13' W 096°08'0 0.0
2018-Feb-06 11:59N 19°13' W 096°08'0 0.0
2018-Feb-06 11:23N 19°13' W 096°08'0 0.0
2018-Feb-06 10:59N 19°13' W 096°08'0 0.0
2018-Feb-06 10:29N 19°13' W 096°08'0 0.0
2018-Feb-06 09:59N 19°13' W 096°08'0 0.0
2018-Feb-06 09:29N 19°13' W 096°08'0 0.0
2018-Feb-06 08:59N 19°13' W 096°08'0 0.0
2018-Feb-06 08:29N 19°13' W 096°08'0 0.0
2018-Feb-06 07:59N 19°13' W 096°08'0 0.0
2018-Feb-06 07:29N 19°13' W 096°08'0 0.0
2018-Feb-06 06:59N 19°13' W 096°08'0 0.0
2018-Feb-06 06:29N 19°13' W 096°08'0 0.0
2018-Feb-06 05:59N 19°13' W 096°08'0 0.0
2018-Feb-06 05:29N 19°13' W 096°08'0 0.0
2018-Feb-06 04:59N 19°13' W 096°08'0 0.0
2018-Feb-06 04:29N 19°13' W 096°08'0 0.0
2018-Feb-06 03:53N 19°13' W 096°08'0 0.0
2018-Feb-06 03:26N 19°13' W 096°08'0 0.0
2018-Feb-06 02:59N 19°13' W 096°08'0 0.0
2018-Feb-06 02:29N 19°13' W 096°08'0 0.0
2018-Feb-06 01:59N 19°13' W 096°08'0 0.0
2018-Feb-06 01:26N 19°13' W 096°08'0 0.0
2018-Feb-06 00:59N 19°13' W 096°08'0 0.0
2018-Feb-06 00:29N 19°13' W 096°08'0 0.0
2018-Feb-05 23:56N 19°13' W 096°08'0 0.0
2018-Feb-05 23:29N 19°13' W 096°08'0 0.0
2018-Feb-05 22:59N 19°13' W 096°08'0 0.0
2018-Feb-05 22:29N 19°13' W 096°08'0 0.0
2018-Feb-05 21:59N 19°13' W 096°08'0 0.0
2018-Feb-05 21:29N 19°13' W 096°08'0 0.0
2018-Feb-05 20:59N 19°13' W 096°08'0 0.0
2018-Feb-05 20:26N 19°13' W 096°08'0 0.3
2018-Feb-05 19:59N 19°13' W 096°08'2 4.0
2018-Feb-05 19:30N 19°12' W 096°06'3 6.6
2018-Feb-05 19:00N 19°10' W 096°03'2 1.9
2018-Feb-05 17:54N 19°08' W 096°03'0 0.0
2018-Feb-05 17:24N 19°08' W 096°03'0 0.0
2018-Feb-05 15:54N 19°08' W 096°03'0 0.0
2018-Feb-05 14:25N 19°08' W 096°03'0 0.0
2018-Feb-05 13:24N 19°08' W 096°03'0 0.0
2018-Feb-05 10:54N 19°08' W 096°03'0 0.0
2018-Feb-05 09:24N 19°08' W 096°03'0 0.0
2018-Feb-05 09:00N 19°08' W 096°03'0 0.0
2018-Feb-05 08:30N 19°08' W 096°03'0 0.0
2018-Feb-05 08:00N 19°08' W 096°03'0 0.0
2018-Feb-05 07:30N 19°08' W 096°03'0 0.0
2018-Feb-05 06:48N 19°08' W 096°03'0 0.0
2018-Feb-05 06:30N 19°08' W 096°03'0 0.0
2018-Feb-05 05:24N 19°08' W 096°03'0 0.0
2018-Feb-05 05:00N 19°08' W 096°03'0 0.0
2018-Feb-05 04:30N 19°08' W 096°03'0 0.0
2018-Feb-05 04:00N 19°08' W 096°03'0 0.0
2018-Feb-05 03:30N 19°08' W 096°03'0 0.0
2018-Feb-05 03:00N 19°08' W 096°03'0 0.0
2018-Feb-05 02:31N 19°08' W 096°03'0 0.0
2018-Feb-05 02:00N 19°08' W 096°03'0 0.0
2018-Feb-05 01:31N 19°08' W 096°03'0 0.0
2018-Feb-05 00:54N 19°08' W 096°03'0 0.0
2018-Feb-05 00:25N 19°08' W 096°03'0 0.0
2018-Feb-05 00:00N 19°08' W 096°03'0 0.0
2018-Feb-04 23:31N 19°08' W 096°03'0 0.0
2018-Feb-04 22:54N 19°08' W 096°03'0 0.0
2018-Feb-04 22:30N 19°08' W 096°03'0 0.0
2018-Feb-04 22:01N 19°08' W 096°03'0 0.0
2018-Feb-04 21:19N 19°08' W 096°03'0 0.0
2018-Feb-04 21:01N 19°08' W 096°03'0 0.0
2018-Feb-04 20:00N 19°08' W 096°03'0 0.0
2018-Feb-04 19:30N 19°08' W 096°03'0 0.0
2018-Feb-04 18:54N 19°08' W 096°03'0 0.0
2018-Feb-04 18:30N 19°08' W 096°03'0 0.0
2018-Feb-04 18:01N 19°08' W 096°03'0 0.0
2018-Feb-04 17:24N 19°08' W 096°03'0 0.0
2018-Feb-04 15:30N 19°08' W 096°03'0 0.0
2018-Feb-04 15:01N 19°08' W 096°03'0 0.0
2018-Feb-04 14:30N 19°08' W 096°03'0 0.0
2018-Feb-04 14:00N 19°08' W 096°03'0 0.0
2018-Feb-04 13:31N 19°08' W 096°03'0 0.0
2018-Feb-04 13:00N 19°08' W 096°03'0 0.0
2018-Feb-04 12:30N 19°08' W 096°03'0 0.0
2018-Feb-04 12:00N 19°08' W 096°03'0 0.0
2018-Feb-04 11:31N 19°08' W 096°03'0 0.0
2018-Feb-04 10:00N 19°08' W 096°03'0 0.0
2018-Feb-04 07:36N 19°08' W 096°03'0 0.1
2018-Feb-04 07:30N 19°08' W 096°03'0 0.0
2018-Feb-04 05:37N 19°08' W 096°03'0 0.0
2018-Feb-04 05:18N 19°08' W 096°03'0 0.0
2018-Feb-04 05:00N 19°08' W 096°03'0 0.0
2018-Feb-04 04:18N 19°08' W 096°03'0 0.0
2018-Feb-04 03:54N 19°08' W 096°03'  
Track history (hours):
 
Tides and Currents Weather Stations Pressure Air Temp Water Temp Dewpoint Dewpoint Depression Visibility Wind Speed Wind Dir Waves Ship Positions

Adriatic Highway

Last reported at 2018-Feb-14 03:42 UTC. Time now 2018-Feb-20 12:15 UTC.
Position N 41°26' W 071°24'.

Length 199 m; draft 8.8 m.

Type: Cargo ship. MMSI: 432665000.

Date/timePositionNaut miles runAvg speedWind from/ knotsBaromVisibWave heightAir tempDewpointWater temp
2018-Feb-14 03:42N 41°26' W 071°24'1 7.1
2018-Feb-14 03:30N 41°26' W 071°23'612.0
2018-Feb-14 03:00N 41°32' W 071°21'4 8.4
2018-Feb-14 02:30N 41°36' W 071°24'1 1.5
2018-Feb-14 01:53N 41°37' W 071°24'0 0.0
2018-Feb-14 01:29N 41°37' W 071°24'0 0.0
2018-Feb-14 00:59N 41°37' W 071°24'0 0.0
2018-Feb-14 00:22N 41°37' W 071°24'0 0.0
2018-Feb-13 23:53N 41°37' W 071°24'0 0.0
2018-Feb-13 23:29N 41°37' W 071°24'0 0.0
2018-Feb-13 22:59N 41°37' W 071°24'0 0.0
2018-Feb-13 22:29N 41°37' W 071°24'0 0.0
2018-Feb-13 21:59N 41°37' W 071°24'0 0.0
2018-Feb-13 21:29N 41°37' W 071°24'0 0.0
2018-Feb-13 20:59N 41°37' W 071°24'0 0.0
2018-Feb-13 20:29N 41°37' W 071°24'0 0.0
2018-Feb-13 19:47N 41°37' W 071°24'0 0.0
2018-Feb-13 19:29N 41°37' W 071°24'0 0.0
2018-Feb-13 18:59N 41°37' W 071°24'0 0.0
2018-Feb-13 18:17N 41°37' W 071°24'0 0.0
2018-Feb-13 17:59N 41°37' W 071°24'0 0.0
2018-Feb-13 17:29N 41°37' W 071°24'0 0.0
2018-Feb-13 16:59N 41°37' W 071°24'0 0.0
2018-Feb-13 16:23N 41°37' W 071°24'0 0.0
2018-Feb-13 15:59N 41°37' W 071°24'0 0.0
2018-Feb-13 15:28N 41°37' W 071°24'0 0.0
2018-Feb-13 14:58N 41°37' W 071°24'1 1.3
2018-Feb-13 14:30N 41°36' W 071°24'3 5.9
2018-Feb-13 14:00N 41°34' W 071°21'611.6
2018-Feb-13 13:30N 41°28' W 071°21'510.2
2018-Feb-13 13:00N 41°23' W 071°21'  
2018-Feb-10 12:20N 26°22' W 079°27'618.0
2018-Feb-10 12:00N 26°16' W 079°28'918.0
2018-Feb-10 11:30N 26°07' W 079°29'918.1
2018-Feb-10 11:00N 25°58' W 079°31'918.2
2018-Feb-10 10:30N 25°49' W 079°33'918.3
2018-Feb-10 10:00N 25°40' W 079°35'918.4
2018-Feb-10 09:30N 25°31' W 079°36'  
2018-Feb-07 09:26N 19°13' W 096°08'0 0.0
2018-Feb-07 08:38N 19°13' W 096°08'0 0.0
2018-Feb-07 08:20N 19°13' W 096°08'0 0.0
2018-Feb-07 07:59N 19°13' W 096°08'0 0.0
2018-Feb-07 07:23N 19°13' W 096°08'0 0.0
2018-Feb-07 06:53N 19°13' W 096°08'0 0.0
2018-Feb-07 06:26N 19°13' W 096°08'0 0.0
2018-Feb-07 05:59N 19°13' W 096°08'0 0.0
2018-Feb-07 05:29N 19°13' W 096°08'0 0.0
2018-Feb-07 04:59N 19°13' W 096°08'0 0.0
2018-Feb-07 04:29N 19°13' W 096°08'0 0.0
2018-Feb-07 03:56N 19°13' W 096°08'0 0.0
2018-Feb-07 03:29N 19°13' W 096°08'0 0.0
2018-Feb-07 02:59N 19°13' W 096°08'0 0.0
2018-Feb-07 02:29N 19°13' W 096°08'0 0.0
2018-Feb-07 01:59N 19°13' W 096°08'0 0.0
2018-Feb-07 01:29N 19°13' W 096°08'0 0.0
2018-Feb-07 00:59N 19°13' W 096°08'0 0.0
2018-Feb-07 00:23N 19°13' W 096°08'0 0.0
2018-Feb-06 23:59N 19°13' W 096°08'0 0.0
2018-Feb-06 23:29N 19°13' W 096°08'0 0.0
2018-Feb-06 22:59N 19°13' W 096°08'0 0.0
2018-Feb-06 22:26N 19°13' W 096°08'0 0.0
2018-Feb-06 21:59N 19°13' W 096°08'0 0.0
2018-Feb-06 21:29N 19°13' W 096°08'0 0.0
2018-Feb-06 20:59N 19°13' W 096°08'0 0.0
2018-Feb-06 20:29N 19°13' W 096°08'0 0.0
2018-Feb-06 19:59N 19°13' W 096°08'0 0.0
2018-Feb-06 19:29N 19°13' W 096°08'0 0.0
2018-Feb-06 18:59N 19°13' W 096°08'0 0.0
2018-Feb-06 18:29N 19°13' W 096°08'0 0.0
2018-Feb-06 17:59N 19°13' W 096°08'0 0.0
2018-Feb-06 17:29N 19°13' W 096°08'0 0.0
2018-Feb-06 16:59N 19°13' W 096°08'0 0.0
2018-Feb-06 16:29N 19°13' W 096°08'0 0.0
2018-Feb-06 15:59N 19°13' W 096°08'0 0.0
2018-Feb-06 15:29N 19°13' W 096°08'0 0.0
2018-Feb-06 14:59N 19°13' W 096°08'0 0.0
2018-Feb-06 14:29N 19°13' W 096°08'0 0.0
2018-Feb-06 13:59N 19°13' W 096°08'0 0.0
2018-Feb-06 13:29N 19°13' W 096°08'0 0.0
2018-Feb-06 12:59N 19°13' W 096°08'0 0.0
2018-Feb-06 12:29N 19°13' W 096°08'0 0.0
2018-Feb-06 11:59N 19°13' W 096°08'0 0.0
2018-Feb-06 11:23N 19°13' W 096°08'0 0.0
2018-Feb-06 10:59N 19°13' W 096°08'0 0.0
2018-Feb-06 10:29N 19°13' W 096°08'0 0.0
2018-Feb-06 09:59N 19°13' W 096°08'0 0.0
2018-Feb-06 09:29N 19°13' W 096°08'0 0.0
2018-Feb-06 08:59N 19°13' W 096°08'0 0.0
2018-Feb-06 08:29N 19°13' W 096°08'0 0.0
2018-Feb-06 07:59N 19°13' W 096°08'0 0.0
2018-Feb-06 07:29N 19°13' W 096°08'0 0.0
2018-Feb-06 06:59N 19°13' W 096°08'0 0.0
2018-Feb-06 06:29N 19°13' W 096°08'0 0.0
2018-Feb-06 05:59N 19°13' W 096°08'0 0.0
2018-Feb-06 05:29N 19°13' W 096°08'0 0.0
2018-Feb-06 04:59N 19°13' W 096°08'0 0.0
2018-Feb-06 04:29N 19°13' W 096°08'0 0.0
2018-Feb-06 03:53N 19°13' W 096°08'0 0.0
2018-Feb-06 03:26N 19°13' W 096°08'0 0.0
2018-Feb-06 02:59N 19°13' W 096°08'0 0.0
2018-Feb-06 02:29N 19°13' W 096°08'0 0.0
2018-Feb-06 01:59N 19°13' W 096°08'0 0.0
2018-Feb-06 01:26N 19°13' W 096°08'0 0.0
2018-Feb-06 00:59N 19°13' W 096°08'0 0.0
2018-Feb-06 00:29N 19°13' W 096°08'0 0.0
2018-Feb-05 23:56N 19°13' W 096°08'0 0.0
2018-Feb-05 23:29N 19°13' W 096°08'0 0.0
2018-Feb-05 22:59N 19°13' W 096°08'0 0.0
2018-Feb-05 22:29N 19°13' W 096°08'0 0.0
2018-Feb-05 21:59N 19°13' W 096°08'0 0.0
2018-Feb-05 21:29N 19°13' W 096°08'0 0.0
2018-Feb-05 20:59N 19°13' W 096°08'0 0.0
2018-Feb-05 20:26N 19°13' W 096°08'0 0.3
2018-Feb-05 19:59N 19°13' W 096°08'2 4.0
2018-Feb-05 19:30N 19°12' W 096°06'3 6.6
2018-Feb-05 19:00N 19°10' W 096°03'2 1.9
2018-Feb-05 17:54N 19°08' W 096°03'0 0.0
2018-Feb-05 17:24N 19°08' W 096°03'0 0.0
2018-Feb-05 15:54N 19°08' W 096°03'0 0.0
2018-Feb-05 14:25N 19°08' W 096°03'0 0.0
2018-Feb-05 13:24N 19°08' W 096°03'0 0.0
2018-Feb-05 10:54N 19°08' W 096°03'0 0.0
2018-Feb-05 09:24N 19°08' W 096°03'0 0.0
2018-Feb-05 09:00N 19°08' W 096°03'0 0.0
2018-Feb-05 08:30N 19°08' W 096°03'0 0.0
2018-Feb-05 08:00N 19°08' W 096°03'0 0.0
2018-Feb-05 07:30N 19°08' W 096°03'0 0.0
2018-Feb-05 06:48N 19°08' W 096°03'0 0.0
2018-Feb-05 06:30N 19°08' W 096°03'0 0.0
2018-Feb-05 05:24N 19°08' W 096°03'0 0.0
2018-Feb-05 05:00N 19°08' W 096°03'0 0.0
2018-Feb-05 04:30N 19°08' W 096°03'0 0.0
2018-Feb-05 04:00N 19°08' W 096°03'0 0.0
2018-Feb-05 03:30N 19°08' W 096°03'0 0.0
2018-Feb-05 03:00N 19°08' W 096°03'0 0.0
2018-Feb-05 02:31N 19°08' W 096°03'0 0.0
2018-Feb-05 02:00N 19°08' W 096°03'0 0.0
2018-Feb-05 01:31N 19°08' W 096°03'0 0.0
2018-Feb-05 00:54N 19°08' W 096°03'0 0.0
2018-Feb-05 00:25N 19°08' W 096°03'0 0.0
2018-Feb-05 00:00N 19°08' W 096°03'0 0.0
2018-Feb-04 23:31N 19°08' W 096°03'0 0.0
2018-Feb-04 22:54N 19°08' W 096°03'0 0.0
2018-Feb-04 22:30N 19°08' W 096°03'0 0.0
2018-Feb-04 22:01N 19°08' W 096°03'0 0.0
2018-Feb-04 21:19N 19°08' W 096°03'0 0.0
2018-Feb-04 21:01N 19°08' W 096°03'0 0.0
2018-Feb-04 20:00N 19°08' W 096°03'0 0.0
2018-Feb-04 19:30N 19°08' W 096°03'0 0.0
2018-Feb-04 18:54N 19°08' W 096°03'0 0.0
2018-Feb-04 18:30N 19°08' W 096°03'0 0.0
2018-Feb-04 18:01N 19°08' W 096°03'0 0.0
2018-Feb-04 17:24N 19°08' W 096°03'0 0.0
2018-Feb-04 15:30N 19°08' W 096°03'0 0.0
2018-Feb-04 15:01N 19°08' W 096°03'0 0.0
2018-Feb-04 14:30N 19°08' W 096°03'0 0.0
2018-Feb-04 14:00N 19°08' W 096°03'0 0.0
2018-Feb-04 13:31N 19°08' W 096°03'0 0.0
2018-Feb-04 13:00N 19°08' W 096°03'0 0.0
2018-Feb-04 12:30N 19°08' W 096°03'0 0.0
2018-Feb-04 12:00N 19°08' W 096°03'0 0.0
2018-Feb-04 11:31N 19°08' W 096°03'0 0.0
2018-Feb-04 10:00N 19°08' W 096°03'0 0.0
2018-Feb-04 07:36N 19°08' W 096°03'0 0.1
2018-Feb-04 07:30N 19°08' W 096°03'0 0.0
2018-Feb-04 05:37N 19°08' W 096°03'0 0.0
2018-Feb-04 05:18N 19°08' W 096°03'0 0.0
2018-Feb-04 05:00N 19°08' W 096°03'0 0.0
2018-Feb-04 04:18N 19°08' W 096°03'0 0.0
2018-Feb-04 03:54N 19°08' W 096°03'  

Dump ship's entire track history